Time;durP1;ratioP1;P1;durP2;ratioP2;P2;SDS_P1;SDS_P2;PMS_P1;PMS_P2;Temp;Humidity;BMP_temperature;BMP_pressure;BME280_temperature;BME280_humidity;BME280_pressure;Samples;Min_cycle;Max_cycle;Signal;HPM_P1;HPM_P2
2022/01/27 00:01:00;;;;;;;18.77;11.65;;;6.70;99.90;;;;;;5032290;28;20102;-72
2022/01/27 00:03:31;;;;;;;22.27;13.90;;;6.70;99.90;;;;;;5033697;28;20177;-73
2022/01/27 00:06:02;;;;;;;17.42;10.85;;;6.70;99.90;;;;;;5035599;28;20157;-73
2022/01/27 00:08:32;;;;;;;19.67;12.15;;;6.70;99.90;;;;;;5026583;28;20109;-74
2022/01/27 00:11:07;;;;;;;22.13;13.82;;;6.70;99.90;;;;;;5034893;28;20057;-72
2022/01/27 00:13:43;;;;;;;19.15;11.35;;;6.70;99.90;;;;;;5034732;28;20430;-72
2022/01/27 00:18:38;;;;;;;21.17;11.38;;;6.70;99.90;;;;;;5037324;28;20057;-72
2022/01/27 00:21:04;;;;;;;24.63;14.57;;;6.70;99.90;;;;;;5035399;28;20048;-73
2022/01/27 00:23:30;;;;;;;23.95;12.55;;;6.70;99.90;;;;;;5036475;28;20491;-73
2022/01/27 00:25:55;;;;;;;23.63;12.77;;;6.70;99.90;;;;;;5037024;28;20529;-73
2022/01/27 00:28:21;;;;;;;24.60;12.00;;;6.70;99.90;;;;;;5035731;28;20051;-73
2022/01/27 00:30:46;;;;;;;25.83;11.57;;;6.70;99.90;;;;;;5037812;28;20805;-73
2022/01/27 00:33:12;;;;;;;20.52;12.18;;;6.70;99.90;;;;;;5035721;28;20679;-73
2022/01/27 00:35:38;;;;;;;19.05;11.93;;;6.70;99.90;;;;;;5036264;28;20043;-73
2022/01/27 00:38:03;;;;;;;24.63;12.88;;;6.70;99.90;;;;;;5036804;28;20536;-73
2022/01/27 00:40:29;;;;;;;24.98;13.43;;;6.70;99.90;;;;;;5037447;28;20048;-73
2022/01/27 00:42:56;;;;;;;24.40;13.48;;;6.70;99.90;;;;;;5036441;28;20053;-73
2022/01/27 00:45:23;;;;;;;22.27;12.82;;;6.70;99.90;;;;;;5035619;28;20057;-73
2022/01/27 00:47:49;;;;;;;26.40;12.23;;;6.70;99.90;;;;;;5035592;28;20060;-73
2022/01/27 00:50:17;;;;;;;26.48;14.35;;;6.60;99.90;;;;;;5036590;28;20044;-73
2022/01/27 00:52:48;;;;;;;22.38;13.50;;;6.70;99.90;;;;;;5036887;28;20044;-73
2022/01/27 00:55:15;;;;;;;20.45;11.35;;;6.70;99.90;;;;;;5038111;28;20591;-73
2022/01/27 01:00:23;;;;;;;24.17;12.57;;;6.60;99.90;;;;;;5037854;28;20136;-73
2022/01/27 01:02:55;;;;;;;18.40;11.20;;;6.60;99.90;;;;;;5031314;28;20061;-73
2022/01/27 01:14:23;;;;;;;27.77;15.23;;;6.60;99.90;;;;;;5038325;28;20902;-73
2022/01/27 01:30:08;;;;;;;26.40;13.65;;;6.50;99.90;;;;;;5037176;28;20800;-73
2022/01/27 01:32:56;;;;;;;28.40;12.38;;;6.50;99.90;;;;;;5070025;28;20926;-72
2022/01/27 01:35:46;;;;;;;19.27;11.40;;;6.50;99.90;;;;;;5038180;28;20072;-72
2022/01/27 01:38:12;;;;;;;22.33;13.27;;;6.40;99.90;;;;;;5069638;28;20424;-73
2022/01/27 01:40:37;;;;;;;25.77;13.68;;;6.40;99.90;;;;;;5036459;28;20088;-73
2022/01/27 01:43:03;;;;;;;20.42;12.73;;;6.50;99.90;;;;;;5036918;28;20056;-73
2022/01/27 01:45:34;;;;;;;27.52;13.75;;;6.40;99.90;;;;;;5036993;28;20064;-72
2022/01/27 01:47:59;;;;;;;28.42;14.02;;;6.40;99.90;;;;;;5036631;28;20080;-73
2022/01/27 01:50:25;;;;;;;25.80;14.85;;;6.40;99.90;;;;;;5035819;28;20160;-72
2022/01/27 01:52:51;;;;;;;24.83;13.73;;;6.40;99.90;;;;;;5036709;28;20394;-73
2022/01/27 01:55:18;;;;;;;24.98;13.43;;;6.30;99.90;;;;;;5040053;28;20126;-73
2022/01/27 01:57:44;;;;;;;16.75;10.05;;;6.30;99.90;;;;;;5041170;28;20057;-72
2022/01/27 02:00:11;;;;;;;21.17;12.40;;;6.30;99.90;;;;;;5040423;28;20044;-73
2022/01/27 02:02:37;;;;;;;23.60;13.25;;;6.30;99.90;;;;;;5039249;28;20052;-73
2022/01/27 02:05:05;;;;;;;24.08;13.27;;;6.20;99.90;;;;;;5040417;28;20057;-73
2022/01/27 02:10:32;;;;;;;30.58;13.02;;;6.30;99.90;;;;;;5041040;28;20500;-73
2022/01/27 02:18:28;;;;;;;32.50;14.77;;;6.20;99.90;;;;;;5041180;28;20061;-74
2022/01/27 02:20:53;;;;;;;25.92;13.25;;;6.20;99.90;;;;;;5040022;28;20052;-74
2022/01/27 02:23:19;;;;;;;21.75;14.07;;;6.20;99.90;;;;;;5037996;28;20835;-73
2022/01/27 02:25:45;;;;;;;22.85;12.75;;;6.30;99.90;;;;;;5038688;28;20044;-73
2022/01/27 02:28:11;;;;;;;27.27;14.18;;;6.30;99.90;;;;;;5040813;28;20783;-73
2022/01/27 02:30:36;;;;;;;36.13;17.70;;;6.30;99.90;;;;;;5039775;28;20052;-73
2022/01/27 02:33:03;;;;;;;32.83;15.77;;;6.30;99.90;;;;;;5040626;28;20047;-74
2022/01/27 02:35:32;;;;;;;22.38;14.98;;;6.40;99.90;;;;;;5040664;28;20663;-74
2022/01/27 02:37:57;;;;;;;20.73;14.38;;;6.40;99.90;;;;;;5039132;28;20049;-73
2022/01/27 02:40:28;;;;;;;24.02;13.20;;;6.40;99.90;;;;;;5040564;28;20713;-74
2022/01/27 02:42:54;;;;;;;24.42;14.70;;;6.40;99.90;;;;;;5033595;28;20053;-74
2022/01/27 02:45:36;;;;;;;29.67;15.15;;;6.40;99.90;;;;;;5038093;28;20416;-73
2022/01/27 02:48:02;;;;;;;25.73;15.32;;;6.40;99.90;;;;;;5040095;28;20475;-72
2022/01/27 02:50:28;;;;;;;32.05;15.88;;;6.50;99.90;;;;;;5040721;28;20049;-71
2022/01/27 02:52:53;;;;;;;19.45;14.68;;;6.50;99.90;;;;;;5040990;28;20041;-74
2022/01/27 02:55:19;;;;;;;27.08;14.13;;;6.60;99.90;;;;;;5039089;28;20103;-72
2022/01/27 02:57:44;;;;;;;23.77;15.00;;;6.60;99.90;;;;;;5038716;28;20428;-73
2022/01/27 03:00:10;;;;;;;21.50;13.07;;;6.60;99.90;;;;;;5038315;28;20052;-74
2022/01/27 03:02:37;;;;;;;27.08;14.10;;;6.60;99.90;;;;;;5038527;28;20049;-73
2022/01/27 03:05:03;;;;;;;25.00;14.85;;;6.60;99.90;;;;;;5035821;28;20037;-73
2022/01/27 03:07:29;;;;;;;24.67;14.55;;;6.60;99.90;;;;;;5038824;28;20057;-73
2022/01/27 03:09:54;;;;;;;26.75;14.35;;;6.60;99.90;;;;;;5039501;28;20044;-73
2022/01/27 03:12:23;;;;;;;27.25;14.60;;;6.70;99.90;;;;;;5039976;28;20055;-73
2022/01/27 03:14:49;;;;;;;26.98;14.77;;;6.70;99.90;;;;;;5032726;28;20044;-72
2022/01/27 03:17:15;;;;;;;21.50;11.65;;;6.70;99.90;;;;;;5037983;28;20476;-72
2022/01/27 03:19:41;;;;;;;19.70;15.30;;;6.70;99.90;;;;;;5038654;28;20041;-72
2022/01/27 03:22:08;;;;;;;25.23;15.32;;;6.70;99.90;;;;;;5037341;28;20134;-72
2022/01/27 03:24:34;;;;;;;23.60;14.15;;;6.70;99.90;;;;;;5038146;28;20151;-73
2022/01/27 03:27:01;;;;;;;30.02;16.15;;;6.70;99.90;;;;;;5039339;28;20512;-73
2022/01/27 03:29:27;;;;;;;26.55;14.48;;;6.70;99.90;;;;;;5037878;28;20115;-73
2022/01/27 03:31:53;;;;;;;31.27;15.15;;;6.70;99.90;;;;;;5039677;28;20465;-73
2022/01/27 03:34:19;;;;;;;25.55;14.63;;;6.70;99.90;;;;;;5039885;28;20083;-73
2022/01/27 03:36:45;;;;;;;28.10;13.45;;;6.70;99.90;;;;;;5037750;28;20049;-73
2022/01/27 03:39:11;;;;;;;26.20;14.10;;;6.70;99.90;;;;;;5038274;28;20056;-73
2022/01/27 03:41:38;;;;;;;22.85;14.63;;;6.70;99.90;;;;;;5040205;28;20049;-72
2022/01/27 03:44:05;;;;;;;24.67;14.05;;;6.70;99.90;;;;;;5038192;28;20130;-72
2022/01/27 03:46:31;;;;;;;22.83;12.80;;;6.70;99.90;;;;;;5037430;28;20057;-73
2022/01/27 03:48:58;;;;;;;28.38;14.75;;;6.70;99.90;;;;;;5031841;28;20051;-73
2022/01/27 03:51:23;;;;;;;24.40;15.35;;;6.70;99.90;;;;;;5034887;28;20126;-73
2022/01/27 03:53:49;;;;;;;26.48;15.18;;;6.70;99.90;;;;;;5036935;28;20152;-71
2022/01/27 03:56:15;;;;;;;24.70;15.93;;;6.70;99.90;;;;;;5037594;28;20088;-73
2022/01/27 03:58:41;;;;;;;25.63;13.85;;;6.50;99.90;;;;;;5038143;28;20052;-73
2022/01/27 04:01:06;;;;;;;30.20;16.75;;;6.70;99.90;;;;;;5038044;28;20055;-72
2022/01/27 04:03:36;;;;;;;22.67;14.57;;;6.80;99.90;;;;;;5038169;28;20048;-73
2022/01/27 04:06:09;;;;;;;27.73;15.93;;;6.80;99.90;;;;;;5038073;28;20182;-73
2022/01/27 04:08:38;;;;;;;23.90;14.43;;;6.80;99.90;;;;;;5037030;28;20053;-73
2022/01/27 04:11:09;;;;;;;28.15;16.02;;;6.80;99.90;;;;;;5037456;28;20080;-72
2022/01/27 04:13:36;;;;;;;26.50;13.73;;;6.80;99.90;;;;;;5038152;28;20065;-73
2022/01/27 04:16:02;;;;;;;24.95;14.68;;;6.80;99.90;;;;;;5036814;28;20048;-72
2022/01/27 04:18:28;;;;;;;21.83;15.38;;;6.80;99.90;;;;;;5036032;28;20049;-73
2022/01/27 04:20:53;;;;;;;28.55;14.93;;;6.80;99.90;;;;;;5037364;28;20690;-73
2022/01/27 04:23:19;;;;;;;25.98;14.63;;;6.80;99.90;;;;;;5038023;28;20052;-72
2022/01/27 04:25:46;;;;;;;28.77;13.90;;;6.80;99.90;;;;;;5038269;28;20505;-73
2022/01/27 04:28:14;;;;;;;23.98;14.32;;;6.80;99.90;;;;;;5038067;28;20072;-73
2022/01/27 04:30:40;;;;;;;26.08;14.18;;;6.90;99.90;;;;;;5038004;28;20037;-73
2022/01/27 04:33:07;;;;;;;28.40;14.38;;;6.80;99.90;;;;;;5037105;28;20455;-73
2022/01/27 04:35:37;;;;;;;25.50;13.60;;;6.90;99.90;;;;;;5036267;28;20056;-73
2022/01/27 04:40:51;;;;;;;24.00;15.20;;;6.90;99.90;;;;;;5038201;28;20068;-73
2022/01/27 04:43:32;;;;;;;30.23;13.98;;;6.90;99.90;;;;;;5037838;28;20057;-73
2022/01/27 04:48:47;;;;;;;28.67;14.27;;;6.90;99.90;;;;;;5036341;28;20118;-73
2022/01/27 04:51:17;;;;;;;19.13;12.77;;;6.90;99.90;;;;;;5036917;28;20106;-73
2022/01/27 04:53:49;;;;;;;21.75;12.10;;;6.90;99.90;;;;;;5036489;28;20148;-73
2022/01/27 04:56:16;;;;;;;31.20;15.00;;;6.90;99.90;;;;;;5038903;28;20053;-73
2022/01/27 04:58:44;;;;;;;26.00;13.25;;;6.90;99.90;;;;;;5038198;28;20044;-73
2022/01/27 05:01:10;;;;;;;25.55;14.95;;;6.90;99.90;;;;;;5037681;28;20128;-73
2022/01/27 05:03:50;;;;;;;19.48;12.85;;;6.90;99.90;;;;;;5037933;28;20492;-74
2022/01/27 05:06:15;;;;;;;19.98;13.35;;;6.90;99.90;;;;;;5036204;28;20045;-73
2022/01/27 05:08:42;;;;;;;26.35;13.32;;;6.90;99.90;;;;;;5035830;28;20647;-73
2022/01/27 05:11:14;;;;;;;27.05;13.07;;;6.90;99.90;;;;;;5035999;28;20139;-73
2022/01/27 05:13:48;;;;;;;21.88;13.05;;;6.90;99.90;;;;;;5036648;28;20052;-73
2022/01/27 05:16:14;;;;;;;36.63;13.65;;;6.90;99.90;;;;;;5037641;28;20781;-73
2022/01/27 05:18:39;;;;;;;25.25;12.75;;;6.90;99.90;;;;;;5037704;28;20059;-71
2022/01/27 05:21:05;;;;;;;19.88;13.07;;;6.90;99.90;;;;;;5037999;28;20049;-74
2022/01/27 05:23:30;;;;;;;24.17;12.18;;;6.90;99.90;;;;;;5037282;28;20052;-74
2022/01/27 05:25:56;;;;;;;21.70;13.35;;;6.90;99.90;;;;;;5036153;28;20045;-74
2022/01/27 05:28:22;;;;;;;26.77;14.20;;;6.90;99.90;;;;;;5040837;28;20049;-75
2022/01/27 05:30:47;;;;;;;35.13;14.70;;;6.80;99.90;;;;;;5040297;28;20757;-75
2022/01/27 05:33:13;;;;;;;31.92;14.45;;;6.80;99.90;;;;;;5042258;28;20155;-75
2022/01/27 05:35:39;;;;;;;25.40;13.93;;;6.70;99.90;;;;;;5040655;28;20136;-75
2022/01/27 05:38:04;;;;;;;30.75;14.60;;;6.70;99.90;;;;;;5040600;28;20063;-74
2022/01/27 05:40:30;;;;;;;27.33;14.43;;;6.70;99.90;;;;;;5042309;28;20081;-74
2022/01/27 05:42:55;;;;;;;33.88;15.13;;;6.60;99.90;;;;;;5041550;28;20060;-76
2022/01/27 05:45:21;;;;;;;28.90;15.98;;;6.60;99.90;;;;;;5041541;28;20164;-77
2022/01/27 05:47:47;;;;;;;38.67;16.45;;;6.60;99.90;;;;;;5039891;28;20091;-78
2022/01/27 05:50:13;;;;;;;28.25;15.18;;;6.60;99.90;;;;;;5040695;28;20057;-78
2022/01/27 05:52:39;;;;;;;26.80;15.95;;;6.50;99.90;;;;;;5039855;28;20033;-77
2022/01/27 05:55:05;;;;;;;26.40;14.50;;;6.60;99.90;;;;;;5041075;28;20181;-77
2022/01/27 05:57:31;;;;;;;35.30;16.48;;;6.60;99.90;;;;;;5039192;28;20057;-79
2022/01/27 05:59:56;;;;;;;22.55;13.43;;;6.60;99.90;;;;;;5037847;28;20048;-78
2022/01/27 06:02:22;;;;;;;30.20;14.23;;;6.60;99.90;;;;;;5039911;28;20749;-78
2022/01/27 06:04:48;;;;;;;31.60;14.65;;;6.50;99.90;;;;;;5038250;28;20091;-75
2022/01/27 06:07:14;;;;;;;29.73;15.52;;;6.60;99.90;;;;;;5039888;28;20063;-76
2022/01/27 06:09:40;;;;;;;24.52;13.88;;;6.50;99.90;;;;;;5041155;28;20573;-78
2022/01/27 06:12:06;;;;;;;26.20;14.35;;;6.50;99.90;;;;;;5038770;28;20053;-79
2022/01/27 06:14:32;;;;;;;22.88;13.73;;;6.50;99.90;;;;;;5038402;28;20067;-78
2022/01/27 06:16:57;;;;;;;38.42;16.08;;;6.50;99.90;;;;;;5036668;28;20049;-78
2022/01/27 06:19:26;;;;;;;22.15;11.93;;;6.50;99.90;;;;;;5037507;28;20041;-78
2022/01/27 06:21:52;;;;;;;27.30;14.48;;;6.50;99.90;;;;;;5069559;28;20071;-80
2022/01/27 06:24:17;;;;;;;19.92;13.10;;;6.60;99.90;;;;;;5037208;28;20595;-82
2022/01/27 06:26:43;;;;;;;18.17;12.73;;;6.50;99.90;;;;;;5036082;28;20051;-82
2022/01/27 06:29:08;;;;;;;25.75;13.35;;;6.60;99.90;;;;;;5038094;28;20052;-81
2022/01/27 06:31:34;;;;;;;27.35;12.80;;;6.60;99.90;;;;;;5035755;28;20056;-80
2022/01/27 06:34:00;;;;;;;20.88;14.02;;;6.60;99.90;;;;;;5035056;28;20770;-82
2022/01/27 06:36:25;;;;;;;21.35;11.93;;;6.60;99.90;;;;;;5035767;28;20048;-82
2022/01/27 06:38:51;;;;;;;21.25;11.25;;;6.60;99.90;;;;;;5035954;28;20057;-80
2022/01/27 06:41:16;;;;;;;21.27;10.73;;;6.60;99.90;;;;;;5036567;28;20728;-76
2022/01/27 06:43:42;;;;;;;22.17;12.40;;;6.60;99.90;;;;;;5034910;28;20085;-77
2022/01/27 06:46:08;;;;;;;22.95;11.55;;;6.70;99.90;;;;;;5036288;28;20087;-80
2022/01/27 06:48:33;;;;;;;19.52;12.93;;;6.70;99.90;;;;;;5035925;28;20138;-81
2022/01/27 06:51:03;;;;;;;19.63;12.95;;;6.70;99.90;;;;;;5031547;28;20837;-83
2022/01/27 06:53:29;;;;;;;16.73;10.95;;;6.70;99.90;;;;;;5037292;28;20063;-79
2022/01/27 06:55:55;;;;;;;18.75;10.73;;;6.70;99.90;;;;;;5035878;28;20061;-83
2022/01/27 06:58:20;;;;;;;14.73;8.90;;;6.70;99.90;;;;;;5036065;28;20041;-80
2022/01/27 07:00:46;;;;;;;21.67;11.10;;;6.70;99.90;;;;;;5037531;28;20675;-84
2022/01/27 07:03:11;;;;;;;16.92;9.23;;;6.80;99.90;;;;;;5036573;28;20066;-83
2022/01/27 07:05:39;;;;;;;14.40;11.43;;;6.80;99.90;;;;;;5069441;28;20548;-76
2022/01/27 07:08:05;;;;;;;13.13;8.38;;;6.80;99.90;;;;;;5036440;28;20041;-78
2022/01/27 07:10:30;;;;;;;20.83;12.18;;;6.90;99.90;;;;;;5037049;28;20052;-79
2022/01/27 07:12:56;;;;;;;18.92;10.70;;;6.90;99.90;;;;;;5036363;28;20800;-81
2022/01/27 07:15:22;;;;;;;15.07;9.63;;;6.90;99.90;;;;;;5035862;28;20489;-80
2022/01/27 07:17:47;;;;;;;15.82;9.45;;;6.90;99.90;;;;;;5035478;28;20432;-82
2022/01/27 07:20:13;;;;;;;14.40;9.45;;;6.90;99.90;;;;;;5069719;28;20049;-81
2022/01/27 07:22:39;;;;;;;14.80;10.10;;;7.00;99.90;;;;;;5068698;28;20048;-80
2022/01/27 07:25:07;;;;;;;19.50;11.13;;;7.00;99.90;;;;;;5030645;28;20048;-79
2022/01/27 07:27:33;;;;;;;11.88;8.30;;;7.00;99.90;;;;;;5028520;28;20151;-78
2022/01/27 07:29:59;;;;;;;15.70;8.82;;;7.00;99.90;;;;;;5034273;28;20041;-81
2022/01/27 07:32:25;;;;;;;11.90;8.25;;;7.10;99.90;;;;;;5026376;28;20102;-80
2022/01/27 07:34:50;;;;;;;15.85;8.35;;;7.10;99.90;;;;;;5024605;28;20049;-80
2022/01/27 07:37:16;;;;;;;14.27;7.50;;;7.10;99.90;;;;;;5066439;28;20051;-81
2022/01/27 07:39:41;;;;;;;13.45;7.65;;;7.10;99.90;;;;;;5064538;28;20045;-80
2022/01/27 07:42:08;;;;;;;16.15;8.43;;;7.20;99.90;;;;;;5035724;28;20578;-78
2022/01/27 07:44:33;;;;;;;11.80;6.53;;;7.20;99.90;;;;;;5030135;28;20053;-78
2022/01/27 07:46:59;;;;;;;12.65;6.18;;;7.20;99.90;;;;;;5027939;28;20045;-77
2022/01/27 07:49:25;;;;;;;14.80;7.55;;;7.20;99.90;;;;;;5030831;28;20095;-80
2022/01/27 07:51:50;;;;;;;10.88;7.85;;;7.20;99.90;;;;;;5035354;28;20183;-78
2022/01/27 07:54:16;;;;;;;12.65;7.35;;;7.20;99.90;;;;;;5029031;28;20103;-78
2022/01/27 07:56:41;;;;;;;17.08;8.48;;;7.30;99.90;;;;;;5064627;28;20052;-78
2022/01/27 07:59:07;;;;;;;11.68;7.43;;;7.30;99.90;;;;;;5027501;28;20514;-80
2022/01/27 08:01:33;;;;;;;11.50;7.50;;;7.40;99.90;;;;;;5028106;28;20045;-81
2022/01/27 08:03:58;;;;;;;13.68;7.72;;;7.40;99.90;;;;;;5032577;28;20425;-82
2022/01/27 08:06:24;;;;;;;12.65;7.35;;;7.40;99.90;;;;;;5037555;28;20064;-80
2022/01/27 08:08:50;;;;;;;15.02;8.45;;;7.50;99.90;;;;;;5031843;28;20087;-82
2022/01/27 08:11:17;;;;;;;19.48;9.40;;;7.50;99.90;;;;;;5033510;28;20044;-80
2022/01/27 08:13:43;;;;;;;15.98;9.73;;;7.50;99.90;;;;;;5031356;28;20049;-81
2022/01/27 08:16:08;;;;;;;18.05;9.43;;;7.60;99.90;;;;;;5033657;28;20063;-79
2022/01/27 08:18:34;;;;;;;14.65;9.50;;;7.60;99.90;;;;;;5026398;28;20049;-81
2022/01/27 08:20:59;;;;;;;22.08;9.30;;;7.70;99.90;;;;;;5027857;28;20041;-80
2022/01/27 08:23:25;;;;;;;16.73;8.68;;;7.70;99.90;;;;;;5033516;28;20084;-84
2022/01/27 08:26:01;;;;;;;13.85;8.25;;;7.70;99.90;;;;;;5057406;28;20118;-81
2022/01/27 08:28:32;;;;;;;18.42;10.38;;;7.80;99.90;;;;;;5036315;28;20064;-81
2022/01/27 08:30:59;;;;;;;13.95;8.30;;;7.80;99.90;;;;;;5032049;28;20408;-81
2022/01/27 08:33:28;;;;;;;15.68;10.05;;;7.80;99.90;;;;;;5029597;28;20083;-84
2022/01/27 08:35:54;;;;;;;18.85;8.43;;;7.90;99.90;;;;;;5032002;28;20080;-78
2022/01/27 08:38:20;;;;;;;18.52;8.98;;;7.90;99.90;;;;;;5033480;28;20163;-82
2022/01/27 08:40:45;;;;;;;20.63;11.00;;;8.00;99.90;;;;;;5032599;28;20082;-81
2022/01/27 08:43:11;;;;;;;14.85;8.75;;;8.00;99.90;;;;;;5028612;28;20416;-82
2022/01/27 08:45:39;;;;;;;22.58;9.25;;;8.00;99.90;;;;;;5066116;28;20491;-80
2022/01/27 08:48:06;;;;;;;16.75;8.38;;;8.10;99.90;;;;;;5063507;28;20048;-81
2022/01/27 08:50:31;;;;;;;15.02;6.95;;;8.10;99.90;;;;;;5033600;28;20049;-77
2022/01/27 08:52:57;;;;;;;15.10;8.65;;;8.10;99.90;;;;;;5034318;28;20056;-77
2022/01/27 08:55:23;;;;;;;14.77;6.38;;;8.10;99.90;;;;;;5029429;28;20049;-77
2022/01/27 08:57:49;;;;;;;21.02;7.45;;;8.20;99.90;;;;;;5030479;28;20051;-75
2022/01/27 09:00:16;;;;;;;10.48;6.53;;;8.30;99.90;;;;;;5031426;28;20041;-78
2022/01/27 09:02:41;;;;;;;18.10;7.43;;;8.30;99.90;;;;;;5062835;28;20041;-78
2022/01/27 09:05:07;;;;;;;16.30;7.38;;;8.30;99.90;;;;;;5028752;28;20037;-78
2022/01/27 09:07:34;;;;;;;16.08;6.97;;;8.30;99.90;;;;;;5030716;28;20148;-76
2022/01/27 09:10:00;;;;;;;19.17;7.80;;;8.40;99.90;;;;;;5037122;28;20888;-78
2022/01/27 09:12:25;;;;;;;18.45;6.90;;;8.40;99.90;;;;;;5037400;28;20049;-77
2022/01/27 09:14:51;;;;;;;14.68;6.13;;;8.40;99.90;;;;;;5035378;28;20132;-78
2022/01/27 09:17:17;;;;;;;11.75;5.75;;;8.50;99.90;;;;;;5037938;28;20041;-77
2022/01/27 09:19:45;;;;;;;14.57;7.78;;;8.40;99.90;;;;;;5037480;28;20092;-76
2022/01/27 09:22:15;;;;;;;13.43;6.07;;;8.50;99.90;;;;;;5035370;28;20047;-76
2022/01/27 09:24:57;;;;;;;10.98;5.95;;;8.50;99.90;;;;;;5069664;28;20102;-77
2022/01/27 09:27:23;;;;;;;10.60;5.13;;;8.50;99.90;;;;;;5037227;28;20582;-73
2022/01/27 09:29:49;;;;;;;26.92;7.05;;;8.50;99.90;;;;;;5037517;28;20922;-76
2022/01/27 09:32:16;;;;;;;12.77;6.03;;;8.50;99.90;;;;;;5036511;28;20060;-75
2022/01/27 09:34:43;;;;;;;18.92;6.60;;;8.50;99.90;;;;;;5037846;28;20041;-77
2022/01/27 09:37:09;;;;;;;13.80;5.57;;;8.50;99.90;;;;;;5067396;28;20045;-73
2022/01/27 09:39:35;;;;;;;12.75;6.05;;;8.50;99.90;;;;;;5032975;28;20091;-77
2022/01/27 09:42:03;;;;;;;16.63;5.85;;;8.50;99.90;;;;;;5067573;28;20056;-77
2022/01/27 09:44:31;;;;;;;16.55;5.20;;;8.60;99.90;;;;;;5035174;28;20649;-71
2022/01/27 09:47:00;;;;;;;14.93;5.72;;;8.60;99.90;;;;;;5067920;28;20078;-71
2022/01/27 09:49:34;;;;;;;11.77;5.43;;;8.60;99.90;;;;;;5069119;28;20049;-71
2022/01/27 09:52:00;;;;;;;10.20;5.13;;;8.60;99.90;;;;;;5036185;28;20044;-74
2022/01/27 09:54:26;;;;;;;10.52;5.28;;;8.70;99.90;;;;;;4683127;28;9999803;-75
2022/01/27 09:56:53;;;;;;;12.75;5.40;;;8.60;99.90;;;;;;5061984;28;20659;-76
2022/01/27 09:59:21;;;;;;;14.98;7.22;;;8.70;99.90;;;;;;5032671;28;20099;-77
2022/01/27 10:02:08;;;;;;;11.43;4.90;;;8.80;99.90;;;;;;5030466;28;20052;-77
2022/01/27 10:04:44;;;;;;;7.93;4.90;;;8.80;99.90;;;;;;5029881;28;20041;-78
2022/01/27 10:07:11;;;;;;;14.43;4.82;;;8.90;99.90;;;;;;5028863;28;20056;-77
2022/01/27 10:09:37;;;;;;;7.30;4.35;;;9.00;99.90;;;;;;5030973;28;20158;-75
2022/01/27 10:12:04;;;;;;;14.27;4.50;;;9.00;99.90;;;;;;5032908;28;20053;-77
2022/01/27 10:14:38;;;;;;;11.25;4.05;;;9.00;99.90;;;;;;5033427;28;20079;-78
2022/01/27 10:17:09;;;;;;;8.10;4.65;;;9.10;99.90;;;;;;5065084;28;20500;-75
2022/01/27 10:19:36;;;;;;;14.93;4.55;;;9.10;99.90;;;;;;5037087;28;21027;-77
2022/01/27 10:22:13;;;;;;;10.02;4.40;;;9.20;99.90;;;;;;5032338;28;20045;-78
2022/01/27 10:24:39;;;;;;;11.20;4.60;;;9.20;99.90;;;;;;5068176;28;20048;-77
2022/01/27 10:27:34;;;;;;;10.00;3.90;;;9.10;99.90;;;;;;5036970;28;20464;-78
2022/01/27 10:30:35;;;;;;;13.80;5.32;;;9.20;99.90;;;;;;5065824;28;20485;-78
2022/01/27 10:32:53;;;;;;;7.43;4.25;;;9.20;99.90;;;;;;5066806;28;20052;-78
2022/01/27 10:35:25;;;;;;;15.40;5.07;;;9.20;99.90;;;;;;5036620;28;20132;-76
2022/01/27 10:38:12;;;;;;;15.30;5.75;;;9.20;99.90;;;;;;5035007;28;20083;-78
2022/01/27 10:40:41;;;;;;;8.52;4.40;;;9.20;99.90;;;;;;5036197;28;20057;-77
2022/01/27 10:43:24;;;;;;;12.38;4.80;;;9.20;99.90;;;;;;5034640;28;20107;-78
2022/01/27 10:46:07;;;;;;;;;;;9.20;99.90;;;;;;5034687;28;20499;-78
2022/01/27 10:48:35;;;;;;;9.02;6.22;;;9.20;99.90;;;;;;5068388;28;19925;-77
2022/01/27 10:54:00;;;;;;;10.52;5.60;;;9.30;99.90;;;;;;5034232;28;20052;-78
2022/01/27 10:56:29;;;;;;;9.18;4.05;;;9.20;99.90;;;;;;5032092;28;20937;-77
2022/01/27 10:58:56;;;;;;;12.07;4.65;;;9.30;99.90;;;;;;5032062;28;20045;-78
2022/01/27 11:01:24;;;;;;;6.97;3.80;;;9.30;99.90;;;;;;5066340;28;20052;-76
2022/01/27 11:03:51;;;;;;;9.38;4.82;;;9.30;99.90;;;;;;5033957;28;20049;-79
2022/01/27 11:06:19;;;;;;;10.35;4.13;;;9.40;99.90;;;;;;5034564;28;20044;-77
2022/01/27 11:08:45;;;;;;;13.57;4.15;;;9.40;99.90;;;;;;5033722;28;20099;-77
2022/01/27 11:11:13;;;;;;;13.98;5.22;;;9.40;99.90;;;;;;5066885;28;20049;-77
2022/01/27 11:13:39;;;;;;;14.32;5.00;;;9.40;99.90;;;;;;5029881;28;20055;-77
2022/01/27 11:16:11;;;;;;;5.72;4.55;;;9.50;99.90;;;;;;5028926;28;20528;-76
2022/01/27 11:18:37;;;;;;;6.53;3.65;;;9.50;99.90;;;;;;5033969;28;20037;-76
2022/01/27 11:21:10;;;;;;;17.88;4.35;;;9.50;99.90;;;;;;5035203;28;20040;-77
2022/01/27 11:26:08;;;;;;;10.90;4.35;;;9.50;99.90;;;;;;5058416;28;20057;-76
2022/01/27 11:28:35;;;;;;;5.50;3.03;;;9.50;99.90;;;;;;5032615;28;20362;-77
2022/01/27 11:31:28;;;;;;;13.30;4.07;;;9.50;99.90;;;;;;5030853;28;20097;-76
2022/01/27 11:34:03;;;;;;;10.85;3.65;;;9.50;99.90;;;;;;5028444;28;20052;-77
2022/01/27 11:36:29;;;;;;;12.90;3.88;;;9.60;99.90;;;;;;5068104;28;20053;-77
2022/01/27 11:38:56;;;;;;;7.68;3.58;;;9.60;99.90;;;;;;5033937;28;20905;-77
2022/01/27 11:41:47;;;;;;;9.98;4.05;;;9.60;99.90;;;;;;5033410;28;20119;-78
2022/01/27 11:44:19;;;;;;;8.38;2.80;;;9.70;99.90;;;;;;5069069;28;20057;-77
2022/01/27 11:47:07;;;;;;;8.13;3.25;;;9.70;99.90;;;;;;5066800;28;20134;-79
2022/01/27 11:50:07;;;;;;;15.30;4.22;;;9.70;99.90;;;;;;5067820;28;20061;-77
2022/01/27 11:52:51;;;;;;;15.40;4.55;;;9.80;99.90;;;;;;5065499;28;20480;-78
2022/01/27 11:55:26;;;;;;;8.82;4.00;;;9.80;99.90;;;;;;5033389;28;20059;-79
2022/01/27 11:57:55;;;;;;;12.27;4.88;;;9.80;99.90;;;;;;5063873;28;20774;-78
2022/01/27 12:00:26;;;;;;;16.17;5.20;;;9.80;99.90;;;;;;5067398;28;20049;-79
2022/01/27 12:03:01;;;;;;;13.05;4.10;;;9.80;99.90;;;;;;5033687;28;20060;-77
2022/01/27 12:05:28;;;;;;;10.27;4.00;;;9.80;99.90;;;;;;5066392;28;20049;-77
2022/01/27 12:08:09;;;;;;;9.77;3.35;;;9.80;99.90;;;;;;5031864;28;20053;-78
2022/01/27 12:10:42;;;;;;;9.65;3.80;;;9.80;99.90;;;;;;5035195;28;20048;-79
2022/01/27 12:13:34;;;;;;;18.93;5.53;;;9.80;99.90;;;;;;5034506;28;20494;-79
2022/01/27 12:16:26;;;;;;;18.60;5.35;;;9.80;99.90;;;;;;5025190;28;20917;-78
2022/01/27 12:19:00;;;;;;;9.55;3.60;;;9.80;99.90;;;;;;5033976;28;20083;-78
2022/01/27 12:21:31;;;;;;;16.95;4.60;;;9.80;99.90;;;;;;5035278;28;20073;-78
2022/01/27 12:24:12;;;;;;;7.50;3.75;;;9.80;99.90;;;;;;5035187;28;20055;-79
2022/01/27 12:26:51;;;;;;;15.18;6.30;;;9.80;99.90;;;;;;5035546;28;20134;-79
2022/01/27 12:29:36;;;;;;;11.00;3.55;;;9.90;99.90;;;;;;5034622;28;20123;-79
2022/01/27 12:32:17;;;;;;;7.80;4.72;;;9.90;99.90;;;;;;5036001;28;20056;-79
2022/01/27 12:34:46;;;;;;;9.45;3.42;;;9.90;99.90;;;;;;5035340;28;20053;-79
2022/01/27 12:37:13;;;;;;;14.45;4.15;;;9.90;99.90;;;;;;5036246;28;20039;-79
2022/01/27 12:39:56;;;;;;;12.27;3.85;;;9.90;99.90;;;;;;5034925;28;20045;-79
2022/01/27 12:42:28;;;;;;;9.18;4.30;;;9.90;99.90;;;;;;5034959;28;20146;-75
2022/01/27 12:45:05;;;;;;;8.80;4.13;;;9.90;99.90;;;;;;5034310;28;20658;-77
2022/01/27 12:47:32;;;;;;;9.02;4.75;;;9.90;99.90;;;;;;5034848;28;20149;-79
2022/01/27 12:50:05;;;;;;;9.85;3.60;;;9.80;99.90;;;;;;5035483;28;20500;-74
2022/01/27 12:52:36;;;;;;;17.37;4.33;;;9.80;99.90;;;;;;5033539;28;20060;-78
2022/01/27 12:55:03;;;;;;;9.18;3.75;;;9.80;99.90;;;;;;5035876;28;20869;-79
2022/01/27 12:57:32;;;;;;;13.40;3.10;;;9.80;99.90;;;;;;5034063;28;20072;-77
2022/01/27 12:59:58;;;;;;;8.75;4.22;;;9.80;99.90;;;;;;5031819;28;20063;-78
2022/01/27 13:02:26;;;;;;;14.20;4.72;;;9.80;99.90;;;;;;5033384;28;20191;-77
2022/01/27 13:04:56;;;;;;;11.45;3.95;;;9.90;99.90;;;;;;5035448;28;20060;-79
2022/01/27 13:07:23;;;;;;;8.88;4.03;;;9.90;99.90;;;;;;5031488;28;20048;-81
2022/01/27 13:10:02;;;;;;;16.17;5.47;;;9.90;99.90;;;;;;5064696;28;20747;-79
2022/01/27 13:12:34;;;;;;;8.23;3.42;;;10.00;99.90;;;;;;5033691;28;20051;-78
2022/01/27 13:15:08;;;;;;;11.18;5.07;;;10.00;99.90;;;;;;5065399;28;20048;-79
2022/01/27 13:17:52;;;;;;;15.90;3.58;;;10.00;99.90;;;;;;5065965;28;20056;-79
2022/01/27 13:20:31;;;;;;;;;;;10.00;99.90;;;;;;5065493;28;20181;-79
2022/01/27 13:23:09;;;;;;;12.88;3.75;;;10.00;99.90;;;;;;5065692;28;19924;-78
2022/01/27 13:25:48;;;;;;;7.35;4.43;;;10.00;99.90;;;;;;5034198;28;20061;-78
2022/01/27 13:28:21;;;;;;;13.18;4.35;;;10.00;99.90;;;;;;5032266;28;20059;-79
2022/01/27 13:30:51;;;;;;;9.25;3.35;;;10.00;99.90;;;;;;5031779;28;20091;-79
2022/01/27 13:33:18;;;;;;;7.30;2.92;;;10.00;99.90;;;;;;5032078;28;20396;-78
2022/01/27 13:35:45;;;;;;;6.85;3.03;;;10.00;99.90;;;;;;5029269;28;20612;-80
2022/01/27 13:38:20;;;;;;;10.32;3.78;;;10.00;99.90;;;;;;5032595;28;20086;-76